createdAt,value
2022-10-18T00:00:07.274Z,27.98
2022-10-18T00:02:54.186Z,29.38
2022-10-18T00:05:20.965Z,26.92
2022-10-18T00:07:47.916Z,30.15
2022-10-18T00:10:14.859Z,30.08
2022-10-18T00:12:41.874Z,26.42
2022-10-18T00:15:10.335Z,26.23
2022-10-18T00:17:38.908Z,26.75
2022-10-18T00:20:07.128Z,29.48
2022-10-18T00:22:36.621Z,28.05
2022-10-18T00:25:03.923Z,26.58
2022-10-18T00:27:31.303Z,27.48
2022-10-18T00:29:58.224Z,33.45
2022-10-18T00:32:25.582Z,25.75
2022-10-18T00:34:52.608Z,25.30
2022-10-18T00:37:19.608Z,28.70
2022-10-18T00:39:46.634Z,33.78
2022-10-18T00:42:18.268Z,26.52
2022-10-18T00:44:45.000Z,28.77
2022-10-18T00:47:14.555Z,27.55
2022-10-18T00:49:44.939Z,29.48
2022-10-18T00:52:17.282Z,29.10
2022-10-18T00:54:46.230Z,26.95
2022-10-18T00:57:14.036Z,31.92
2022-10-18T00:59:42.571Z,27.08
2022-10-18T01:02:10.176Z,28.92
2022-10-18T01:04:37.184Z,22.63
2022-10-18T01:07:29.121Z,26.45
2022-10-18T01:10:17.325Z,26.27
2022-10-18T01:13:08.600Z,25.88
2022-10-18T01:15:50.565Z,28.95
2022-10-18T01:18:53.586Z,27.13
2022-10-18T01:21:29.284Z,25.25
2022-10-18T01:24:15.181Z,26.77
2022-10-18T01:27:15.846Z,30.00
2022-10-18T01:29:54.884Z,27.00
2022-10-18T01:32:29.031Z,26.23
2022-10-18T01:35:04.980Z,25.10
2022-10-18T01:37:35.219Z,28.30
2022-10-18T01:40:06.685Z,28.38
2022-10-18T01:42:34.335Z,27.92
2022-10-18T01:45:03.650Z,28.20
2022-10-18T01:47:31.557Z,24.55
2022-10-18T01:50:00.624Z,25.92
2022-10-18T01:52:27.696Z,28.33
2022-10-18T01:54:55.987Z,31.27
2022-10-18T01:57:28.544Z,25.25
2022-10-18T01:59:58.446Z,31.25
2022-10-18T02:02:40.262Z,27.35
2022-10-18T02:05:25.915Z,26.80
2022-10-18T02:08:23.161Z,26.75
2022-10-18T02:11:07.434Z,27.33
2022-10-18T02:13:42.023Z,22.67
2022-10-18T02:16:35.916Z,26.67
2022-10-18T02:19:09.064Z,25.77
2022-10-18T02:21:38.433Z,27.38
2022-10-18T02:24:06.938Z,23.42
2022-10-18T02:26:33.953Z,23.92
2022-10-18T02:29:00.695Z,27.42
2022-10-18T02:31:35.299Z,26.95
2022-10-18T02:34:22.359Z,27.83
2022-10-18T02:37:00.516Z,27.50
2022-10-18T02:39:31.497Z,24.67
2022-10-18T02:41:59.513Z,26.55
2022-10-18T02:44:26.540Z,24.83
2022-10-18T02:46:53.602Z,29.42
2022-10-18T02:49:20.320Z,24.00
2022-10-18T02:51:47.269Z,23.52
2022-10-18T02:54:14.002Z,29.02
2022-10-18T02:56:40.953Z,21.95
2022-10-18T02:59:08.224Z,26.98
2022-10-18T03:01:36.293Z,23.85
2022-10-18T03:04:04.445Z,24.83
2022-10-18T03:06:32.288Z,24.83
2022-10-18T03:08:59.149Z,21.55
2022-10-18T03:11:26.093Z,28.50
2022-10-18T03:13:52.804Z,30.45
2022-10-18T03:16:19.749Z,24.30
2022-10-18T03:18:46.667Z,25.00
2022-10-18T03:21:13.628Z,22.08
2022-10-18T03:23:42.238Z,26.55
2022-10-18T03:26:09.678Z,23.92
2022-10-18T03:28:36.495Z,24.92
2022-10-18T03:31:04.501Z,25.80
2022-10-18T03:33:32.712Z,21.20
2022-10-18T03:36:00.176Z,32.42
2022-10-18T03:38:27.222Z,24.05
2022-10-18T03:40:54.172Z,28.00
2022-10-18T03:43:20.951Z,26.77
2022-10-18T03:45:47.887Z,22.73
2022-10-18T03:48:14.819Z,27.20
2022-10-18T03:50:42.857Z,24.38
2022-10-18T03:53:10.487Z,25.20
2022-10-18T03:55:37.716Z,22.88
2022-10-18T03:58:04.638Z,24.17
2022-10-18T04:00:31.954Z,29.77
2022-10-18T04:02:58.719Z,30.00
2022-10-18T04:05:28.096Z,24.95
2022-10-18T04:07:55.109Z,25.00
2022-10-18T04:10:22.229Z,28.85
2022-10-18T04:12:48.994Z,23.85
2022-10-18T04:15:16.030Z,21.38
2022-10-18T04:17:42.813Z,21.98
2022-10-18T04:20:10.146Z,19.75
2022-10-18T04:22:36.921Z,27.20
2022-10-18T04:25:05.131Z,23.08
2022-10-18T04:27:32.449Z,20.88
2022-10-18T04:29:59.511Z,23.30
2022-10-18T04:32:29.483Z,24.65
2022-10-18T04:34:59.144Z,21.02
2022-10-18T04:37:25.939Z,22.00
2022-10-18T04:39:53.798Z,21.52
2022-10-18T04:42:24.343Z,19.63
2022-10-18T04:44:51.347Z,21.60
2022-10-18T04:47:18.277Z,18.20
2022-10-18T04:49:45.364Z,23.40
2022-10-18T04:52:12.151Z,26.70
2022-10-18T04:54:39.102Z,23.30
2022-10-18T04:57:05.908Z,25.88
2022-10-18T04:59:32.919Z,24.88
2022-10-18T05:01:59.833Z,28.92
2022-10-18T05:04:26.858Z,23.33
2022-10-18T05:06:53.623Z,26.55
2022-10-18T05:09:24.516Z,28.50
2022-10-18T05:11:51.364Z,26.27
2022-10-18T05:14:18.334Z,24.08
2022-10-18T05:16:45.093Z,21.45
2022-10-18T05:19:12.156Z,28.40
2022-10-18T05:21:38.887Z,25.27
2022-10-18T05:24:06.134Z,27.35
2022-10-18T05:26:33.081Z,23.85
2022-10-18T05:29:00.147Z,22.15
2022-10-18T05:31:27.012Z,25.17
2022-10-18T05:33:53.922Z,28.88
2022-10-18T05:36:20.755Z,27.63
2022-10-18T05:38:48.424Z,28.13
2022-10-18T05:41:15.168Z,31.13
2022-10-18T05:43:42.086Z,29.20
2022-10-18T05:46:14.763Z,25.08
2022-10-18T05:48:44.320Z,22.20
2022-10-18T05:51:11.343Z,22.35
2022-10-18T05:53:38.491Z,22.30
2022-10-18T05:56:06.700Z,32.03
2022-10-18T05:58:34.107Z,25.38
2022-10-18T06:01:05.475Z,28.88
2022-10-18T06:03:33.326Z,22.92
2022-10-18T06:06:00.791Z,28.40
2022-10-18T06:08:27.862Z,28.13
2022-10-18T06:10:54.742Z,26.23
2022-10-18T06:13:21.714Z,30.30
2022-10-18T06:15:48.475Z,29.58
2022-10-18T06:18:15.600Z,28.55
2022-10-18T06:20:42.380Z,27.70
2022-10-18T06:23:09.335Z,33.25
2022-10-18T06:25:36.303Z,31.55
2022-10-18T06:28:07.830Z,35.00
2022-10-18T06:30:37.138Z,35.58
2022-10-18T06:33:04.191Z,28.35
2022-10-18T06:35:30.964Z,29.80
2022-10-18T06:37:57.929Z,31.00
2022-10-18T06:40:24.833Z,28.23
2022-10-18T06:43:00.623Z,34.42
2022-10-18T06:45:33.447Z,32.45
2022-10-18T06:48:00.396Z,29.92
2022-10-18T06:50:27.102Z,32.00
2022-10-18T06:52:56.901Z,28.10
2022-10-18T06:55:23.730Z,24.77
2022-10-18T06:57:50.820Z,22.55
2022-10-18T07:00:17.560Z,22.88
2022-10-18T07:02:44.465Z,25.85
2022-10-18T07:05:11.632Z,25.75
2022-10-18T07:07:39.517Z,27.60
2022-10-18T07:10:06.969Z,25.98
2022-10-18T07:12:34.525Z,24.73
2022-10-18T07:15:03.486Z,26.00
2022-10-18T07:17:34.073Z,26.88
2022-10-18T07:20:00.987Z,24.38
2022-10-18T07:22:30.231Z,29.67
2022-10-18T07:24:57.216Z,26.95
2022-10-18T07:27:24.169Z,32.80
2022-10-18T07:29:50.994Z,24.45
2022-10-18T07:32:17.957Z,25.63
2022-10-18T07:34:44.671Z,27.70
2022-10-18T07:37:11.653Z,23.73
2022-10-18T07:39:38.398Z,25.65
2022-10-18T07:42:05.312Z,24.45
2022-10-18T07:44:32.086Z,22.33
2022-10-18T07:46:59.021Z,23.83
2022-10-18T07:49:25.771Z,22.88
2022-10-18T07:51:53.219Z,24.30
2022-10-18T07:54:19.998Z,20.33
2022-10-18T07:56:47.163Z,20.40
2022-10-18T07:59:19.087Z,24.02
2022-10-18T08:01:52.985Z,22.67
2022-10-18T08:04:21.629Z,21.75
2022-10-18T08:06:48.746Z,27.42
2022-10-18T08:09:15.509Z,28.90
2022-10-18T08:11:42.483Z,31.60
2022-10-18T08:14:09.213Z,18.02
2022-10-18T08:16:36.143Z,25.73
2022-10-18T08:19:02.875Z,23.15
2022-10-18T08:21:29.863Z,20.90
2022-10-18T08:23:56.620Z,32.15
2022-10-18T08:26:23.981Z,23.17
2022-10-18T08:28:58.468Z,24.83
2022-10-18T08:31:36.782Z,22.08
2022-10-18T08:34:03.488Z,30.48
2022-10-18T08:36:30.488Z,20.58
2022-10-18T08:38:57.204Z,19.58
2022-10-18T08:41:51.716Z,17.17
2022-10-18T08:44:36.313Z,22.13
2022-10-18T08:47:11.826Z,21.95
2022-10-18T08:49:55.668Z,20.60
2022-10-18T08:55:39.559Z,39.33
2022-10-18T08:58:26.701Z,68.43
2022-10-18T09:01:20.606Z,23.85
2022-10-18T09:06:40.426Z,30.85
2022-10-18T09:09:25.559Z,15.98
2022-10-18T09:12:26.913Z,12.13
2022-10-18T09:15:04.210Z,16.35
2022-10-18T09:17:44.643Z,10.50
2022-10-18T09:20:23.832Z,13.60
2022-10-18T09:23:00.193Z,13.90
2022-10-18T09:25:36.000Z,14.52
2022-10-18T09:28:30.747Z,12.30
2022-10-18T09:31:13.317Z,8.20
2022-10-18T09:33:52.328Z,9.70
2022-10-18T09:36:33.607Z,17.73
2022-10-18T09:39:09.649Z,13.65
2022-10-18T09:41:54.336Z,15.63
2022-10-18T09:44:33.040Z,13.57
2022-10-18T09:47:16.906Z,10.18
2022-10-18T09:49:47.468Z,10.02
2022-10-18T09:52:21.407Z,17.02
2022-10-18T09:54:56.057Z,13.73
2022-10-18T09:57:44.814Z,10.95
2022-10-18T10:00:24.878Z,11.05
2022-10-18T10:02:51.903Z,7.90
2022-10-18T10:05:19.775Z,9.23
2022-10-18T10:07:49.216Z,12.77
2022-10-18T10:10:24.461Z,9.75
2022-10-18T10:13:16.073Z,7.50
2022-10-18T10:15:54.995Z,12.50
2022-10-18T10:18:25.245Z,7.15
2022-10-18T10:20:53.453Z,8.00
2022-10-18T10:23:26.818Z,7.57
2022-10-18T10:26:20.209Z,10.90
2022-10-18T10:28:49.010Z,7.28
2022-10-18T10:31:18.932Z,7.13
2022-10-18T10:33:48.119Z,9.55
2022-10-18T10:36:21.652Z,6.32
2022-10-18T10:39:19.190Z,7.82
2022-10-18T10:41:54.512Z,7.75
2022-10-18T10:44:28.807Z,6.50
2022-10-18T10:46:55.886Z,6.78
2022-10-18T10:49:39.699Z,8.18
2022-10-18T10:52:08.842Z,6.40
2022-10-18T10:54:50.319Z,7.65
2022-10-18T10:57:25.921Z,7.10
2022-10-18T10:59:55.411Z,7.45
2022-10-18T11:02:30.213Z,11.38
2022-10-18T11:05:25.566Z,8.07
2022-10-18T11:07:58.570Z,6.35
2022-10-18T11:10:30.988Z,9.65
2022-10-18T11:13:31.923Z,7.15
2022-10-18T11:16:06.963Z,8.48
2022-10-18T11:18:36.699Z,5.97
2022-10-18T11:21:18.852Z,10.75
2022-10-18T11:23:46.255Z,8.18
2022-10-18T11:26:13.121Z,9.55
2022-10-18T11:29:07.103Z,18.20
2022-10-18T11:31:55.943Z,11.50
2022-10-18T11:34:43.851Z,9.10
2022-10-18T11:37:52.012Z,6.88
2022-10-18T11:40:45.970Z,8.43
2022-10-18T11:43:57.176Z,6.57
2022-10-18T11:46:32.747Z,8.13
2022-10-18T11:49:50.660Z,10.27
2022-10-18T11:52:45.671Z,7.10
2022-10-18T11:55:56.124Z,10.00
2022-10-18T11:59:01.694Z,6.25
2022-10-18T12:02:13.112Z,8.65
2022-10-18T12:04:58.529Z,5.93
2022-10-18T12:07:41.613Z,5.15
2022-10-18T12:10:19.492Z,7.45
2022-10-18T12:13:02.135Z,6.28
2022-10-18T12:15:33.649Z,7.80
2022-10-18T12:18:06.409Z,7.35
2022-10-18T12:20:43.578Z,6.53
2022-10-18T12:23:15.819Z,8.65
2022-10-18T12:25:47.823Z,5.57
2022-10-18T12:28:32.865Z,8.48
2022-10-18T12:31:24.430Z,8.13
2022-10-18T12:33:56.734Z,6.72
2022-10-18T12:36:48.163Z,5.93
2022-10-18T12:39:37.565Z,6.38
2022-10-18T12:42:29.678Z,7.80
2022-10-18T12:45:25.798Z,8.25
2022-10-18T12:47:52.983Z,7.22
2022-10-18T12:50:28.371Z,8.75
2022-10-18T12:53:26.654Z,5.82
2022-10-18T12:55:54.870Z,7.95
2022-10-18T12:58:31.541Z,8.70
2022-10-18T13:01:07.092Z,10.90
2022-10-18T13:03:50.978Z,9.52
2022-10-18T13:06:17.945Z,7.07
2022-10-18T13:08:46.070Z,8.15
2022-10-18T13:11:13.022Z,7.18
2022-10-18T13:14:10.944Z,6.90
2022-10-18T13:16:44.528Z,6.45
2022-10-18T13:19:35.580Z,4.97
2022-10-18T13:22:56.746Z,6.82
2022-10-18T13:25:29.296Z,6.53
2022-10-18T13:28:14.785Z,8.73
2022-10-18T13:30:55.847Z,7.55
2022-10-18T13:33:39.071Z,8.07
2022-10-18T13:36:22.709Z,5.75
2022-10-18T13:38:50.498Z,4.80
2022-10-18T13:41:26.863Z,4.45
2022-10-18T13:44:24.393Z,4.88
2022-10-18T13:46:51.493Z,4.95
2022-10-18T13:49:40.391Z,3.88
2022-10-18T13:52:28.359Z,4.45
2022-10-18T13:55:03.200Z,7.47
2022-10-18T13:57:51.029Z,8.35
2022-10-18T14:00:49.153Z,4.32
2022-10-18T14:03:57.995Z,6.32
2022-10-18T14:06:41.741Z,6.22
2022-10-18T14:09:40.287Z,8.38
2022-10-18T14:12:44.826Z,4.97
2022-10-18T14:15:27.385Z,5.65
2022-10-18T14:18:18.875Z,5.80
2022-10-18T14:21:12.250Z,4.75
2022-10-18T14:23:44.749Z,5.75
2022-10-18T14:26:15.385Z,8.43
2022-10-18T14:28:59.137Z,5.07
2022-10-18T14:31:27.081Z,6.13
2022-10-18T14:33:58.341Z,6.60
2022-10-18T14:36:29.374Z,6.13
2022-10-18T14:38:56.296Z,9.35
2022-10-18T14:41:28.151Z,5.13
2022-10-18T14:44:21.126Z,6.10
2022-10-18T14:46:58.236Z,9.88
2022-10-18T14:49:25.710Z,4.38
2022-10-18T14:51:56.246Z,14.10
2022-10-18T14:54:32.826Z,4.88
2022-10-18T14:57:00.683Z,8.70
2022-10-18T14:59:30.693Z,7.15
2022-10-18T15:02:05.202Z,6.88
2022-10-18T15:04:35.228Z,6.22
2022-10-18T15:07:05.035Z,4.50
2022-10-18T15:09:34.139Z,5.93
2022-10-18T15:12:03.424Z,5.20
2022-10-18T15:14:30.829Z,9.18
2022-10-18T15:17:07.461Z,8.75
2022-10-18T15:19:39.364Z,6.38
2022-10-18T15:25:04.240Z,7.65
2022-10-18T15:27:37.998Z,10.65
2022-10-18T15:30:15.590Z,5.78
2022-10-18T15:32:52.125Z,9.77
2022-10-18T15:35:26.523Z,8.23
2022-10-18T15:37:54.968Z,10.05
2022-10-18T15:40:21.852Z,5.93
2022-10-18T15:42:53.593Z,8.35
2022-10-18T15:45:27.521Z,9.70
2022-10-18T15:48:12.298Z,6.53
2022-10-18T15:50:42.698Z,6.85
2022-10-18T15:53:22.620Z,7.57
2022-10-18T15:56:02.938Z,7.40
2022-10-18T15:58:39.574Z,8.38
2022-10-18T16:01:21.186Z,10.13
2022-10-18T16:03:49.633Z,8.07
2022-10-18T16:06:18.374Z,6.53
2022-10-18T16:08:48.596Z,6.90
2022-10-18T16:11:25.488Z,8.32
2022-10-18T16:13:55.263Z,8.85
2022-10-18T16:16:26.916Z,14.07
2022-10-18T16:18:53.994Z,32.20
2022-10-18T16:21:26.478Z,7.63
2022-10-18T16:23:53.619Z,14.55
2022-10-18T16:26:22.186Z,9.70
2022-10-18T16:28:49.960Z,10.23
2022-10-18T16:31:22.788Z,10.77
2022-10-18T16:33:50.579Z,11.60
2022-10-18T16:36:20.309Z,15.75
2022-10-18T16:38:48.022Z,12.98
2022-10-18T16:41:15.988Z,6.68
2022-10-18T16:43:44.756Z,7.63
2022-10-18T16:46:28.333Z,9.13
2022-10-18T16:48:55.528Z,10.85
2022-10-18T16:51:22.860Z,12.25
2022-10-18T16:53:49.884Z,10.48
2022-10-18T16:56:19.901Z,10.48
2022-10-18T16:58:47.145Z,10.05
2022-10-18T17:01:16.844Z,13.25
2022-10-18T17:03:43.796Z,12.70
2022-10-18T17:06:17.352Z,15.32
2022-10-18T17:08:44.789Z,13.23
2022-10-18T17:11:13.261Z,16.20
2022-10-18T17:13:40.471Z,13.02
2022-10-18T17:16:15.778Z,10.88
2022-10-18T17:18:44.069Z,14.07
2022-10-18T17:21:11.257Z,10.27
2022-10-18T17:23:39.003Z,11.65
2022-10-18T17:26:27.728Z,13.95
2022-10-18T17:29:00.739Z,14.23
2022-10-18T17:31:29.488Z,15.77
2022-10-18T17:33:58.348Z,14.10
2022-10-18T17:36:25.482Z,16.08
2022-10-18T17:38:53.367Z,11.25
2022-10-18T17:41:21.377Z,16.70
2022-10-18T17:43:48.585Z,11.73
2022-10-18T17:46:17.760Z,14.23
2022-10-18T17:48:44.667Z,16.42
2022-10-18T17:51:14.201Z,17.92
2022-10-18T17:53:40.973Z,24.30
2022-10-18T17:56:10.956Z,16.95
2022-10-18T17:58:37.821Z,13.63
2022-10-18T18:01:17.905Z,17.65
2022-10-18T18:03:47.572Z,15.90
2022-10-18T18:06:22.451Z,19.20
2022-10-18T18:08:50.428Z,21.58
2022-10-18T18:11:18.052Z,17.17
2022-10-18T18:13:44.888Z,16.65
2022-10-18T18:16:20.194Z,19.35
2022-10-18T18:18:49.887Z,18.13
2022-10-18T18:21:17.506Z,22.27
2022-10-18T18:23:44.625Z,15.88
2022-10-18T18:26:11.916Z,20.35
2022-10-18T18:28:39.117Z,24.38
2022-10-18T18:31:11.440Z,33.53
2022-10-18T18:33:38.527Z,26.17
2022-10-18T18:36:08.909Z,29.70
2022-10-18T18:38:46.743Z,27.77
2022-10-18T18:41:19.246Z,29.92
2022-10-18T18:43:54.035Z,23.42
2022-10-18T18:46:22.375Z,28.63
2022-10-18T18:48:49.436Z,30.90
2022-10-18T18:51:19.036Z,32.45
2022-10-18T18:53:47.064Z,31.35
2022-10-18T18:58:52.979Z,32.10
2022-10-18T19:01:35.238Z,25.33
2022-10-18T19:04:02.462Z,22.45
2022-10-18T19:06:32.608Z,26.35
2022-10-18T19:09:04.822Z,27.48
2022-10-18T19:11:35.524Z,30.88
2022-10-18T19:14:03.791Z,31.80
2022-10-18T19:16:39.499Z,29.17
2022-10-18T19:19:06.486Z,32.50
2022-10-18T19:21:36.021Z,34.25
2022-10-18T19:24:03.754Z,34.03
2022-10-18T19:26:32.493Z,31.25
2022-10-18T19:29:06.928Z,31.10
2022-10-18T19:31:35.026Z,31.27
2022-10-18T19:34:05.148Z,36.42
2022-10-18T19:36:35.406Z,32.75
2022-10-18T19:39:03.478Z,26.55
2022-10-18T19:41:33.348Z,29.30
2022-10-18T19:44:00.188Z,32.08
2022-10-18T19:46:27.129Z,33.58
2022-10-18T19:48:54.338Z,28.70
2022-10-18T19:51:26.873Z,28.42
2022-10-18T19:53:56.481Z,29.88
2022-10-18T19:56:27.920Z,35.70
2022-10-18T19:58:59.092Z,33.20
2022-10-18T20:01:28.465Z,36.25
2022-10-18T20:03:57.959Z,36.22
2022-10-18T20:06:25.437Z,35.70
2022-10-18T20:08:52.403Z,32.35
2022-10-18T20:11:22.731Z,32.03
2022-10-18T20:13:50.177Z,32.38
2022-10-18T20:16:23.053Z,34.92
2022-10-18T20:19:00.946Z,34.28
2022-10-18T20:21:35.584Z,29.10
2022-10-18T20:24:03.948Z,34.00
2022-10-18T20:26:30.988Z,35.85
2022-10-18T20:28:59.681Z,28.58
2022-10-18T20:31:32.154Z,33.03
2022-10-18T20:34:00.897Z,27.08
2022-10-18T20:36:29.924Z,32.90
2022-10-18T20:38:56.827Z,30.15
2022-10-18T20:41:32.635Z,30.55
2022-10-18T20:44:02.339Z,31.38
2022-10-18T20:46:34.398Z,27.48
2022-10-18T20:49:01.680Z,28.67
2022-10-18T20:51:28.868Z,28.45
2022-10-18T20:53:55.846Z,26.77
2022-10-18T20:56:26.687Z,28.13
2022-10-18T20:58:56.383Z,32.70
2022-10-18T21:01:31.776Z,36.05
2022-10-18T21:04:01.322Z,27.20
2022-10-18T21:06:30.873Z,30.83
2022-10-18T21:09:00.019Z,34.33
2022-10-18T21:11:28.753Z,33.17
2022-10-18T21:13:59.559Z,34.67
2022-10-18T21:16:27.235Z,36.55
2022-10-18T21:18:54.077Z,35.63
2022-10-18T21:21:24.077Z,38.28
2022-10-18T21:23:52.159Z,38.33
2022-10-18T21:26:26.819Z,45.42
2022-10-18T21:28:55.263Z,43.55
2022-10-18T21:31:24.463Z,46.53
2022-10-18T21:33:56.817Z,39.47
2022-10-18T21:36:25.044Z,39.65
2022-10-18T21:38:51.921Z,40.53
2022-10-18T21:41:20.560Z,40.53
2022-10-18T21:43:49.784Z,36.97
2022-10-18T21:46:17.973Z,38.17
2022-10-18T21:48:46.839Z,40.58
2022-10-18T21:51:15.869Z,32.10
2022-10-18T21:53:46.075Z,34.33
2022-10-18T21:56:16.032Z,40.97
2022-10-18T21:58:43.428Z,35.35
2022-10-18T22:01:13.558Z,36.08
2022-10-18T22:03:41.105Z,36.22
2022-10-18T22:06:14.247Z,35.72
2022-10-18T22:08:42.609Z,40.05
2022-10-18T22:11:09.965Z,39.75
2022-10-18T22:13:36.716Z,34.17
2022-10-18T22:16:05.348Z,37.20
2022-10-18T22:18:32.992Z,36.67
2022-10-18T22:21:06.517Z,32.65
2022-10-18T22:23:35.423Z,33.30
2022-10-18T22:26:13.543Z,42.35
2022-10-18T22:28:42.159Z,31.75
2022-10-18T22:31:21.314Z,32.22
2022-10-18T22:33:53.665Z,35.38
2022-10-18T22:36:20.875Z,36.10
2022-10-18T22:38:47.618Z,36.72
2022-10-18T22:41:14.696Z,34.33
2022-10-18T22:43:41.724Z,33.78
2022-10-18T22:46:11.553Z,37.25
2022-10-18T22:48:38.712Z,33.97
2022-10-18T22:51:05.881Z,39.17
2022-10-18T22:53:33.603Z,31.80
2022-10-18T22:56:00.752Z,36.42
2022-10-18T22:58:27.775Z,39.08
2022-10-18T23:01:13.132Z,31.00
2022-10-18T23:03:40.637Z,30.52
2022-10-18T23:06:22.691Z,34.25
2022-10-18T23:08:49.985Z,32.15
2022-10-18T23:11:17.851Z,33.35
2022-10-18T23:13:44.845Z,34.92
2022-10-18T23:16:12.052Z,34.40
2022-10-18T23:21:10.097Z,32.53
2022-10-18T23:23:39.491Z,33.30
2022-10-18T23:26:12.218Z,27.90
2022-10-18T23:28:41.387Z,31.52
2022-10-18T23:31:30.745Z,31.30
2022-10-18T23:34:01.077Z,35.42
2022-10-18T23:36:28.538Z,32.20
2022-10-18T23:38:55.784Z,28.13
2022-10-18T23:41:23.278Z,33.20
2022-10-18T23:43:50.095Z,30.80
2022-10-18T23:46:18.341Z,33.72
2022-10-18T23:48:45.996Z,30.70
2022-10-18T23:51:12.966Z,36.53
2022-10-18T23:53:40.387Z,35.90
2022-10-18T23:56:11.437Z,34.88
2022-10-18T23:58:39.234Z,31.33
